Portada
METAR-TAF:

METAR-TAF

Aeroports :

Clinton Municipal Airport

Clinton, Iowa, Estats Units d'Amèrica

latitud: 41-50N, longitud: 090-20W, altitud: 216 m

Observació

L'informe es va fer fa 9 minuts, a les 07:56 UTC
Vent 10 kt del Oest/Nord-Oest
Temperatura 3°C
Humitat 87%
Pressió 1019 hPa
Visibilitat: 16.1 km
Cel clar

METAR: KCWI 300756Z AUTO 30010KT 10SM CLR 03/01 A3009 RMK AO2 SLP198 T00280006

Hora: 03:05 (08:05 UTC)


TAF: manca

Observacions i pronòstics meteorològics de més de 4000 aeroports (METAR i TAF).

Les estacions disponibles són els punts grocs i vermells al mapa.

Posi el ratolí al punt desitjat per veure el nom de l'estació.

Feu clic per veure les observacions i els pronòstics meteorològics.

Per canviar el mapa: feu clic els botons verds amb una creu de color negre per apropar; al botó verd amb un guió per allunyar la imatge; o en les fletxes verdes per a mapes adjacents.


METAR-TAF: